sensor_id;sensor_type;location;lat;lon;timestamp;pressure;altitude;pressure_sealevel;temperature;humidity
3294;BME280;1659;51.470;6.770;2023-04-07T00:00:28;101175.34;;;7.78;100.00
3294;BME280;1659;51.470;6.770;2023-04-07T00:02:56;101184.09;;;7.79;100.00
3294;BME280;1659;51.470;6.770;2023-04-07T00:05:23;101185.84;;;7.78;100.00
3294;BME280;1659;51.470;6.770;2023-04-07T00:07:50;101185.84;;;7.78;100.00
3294;BME280;1659;51.470;6.770;2023-04-07T00:10:16;101184.09;;;7.79;100.00
3294;BME280;1659;51.470;6.770;2023-04-07T00:12:43;101183.22;;;7.78;100.00
3294;BME280;1659;51.470;6.770;2023-04-07T00:15:10;101184.97;;;7.79;100.00
3294;BME280;1659;51.470;6.770;2023-04-07T00:17:36;101188.50;;;7.80;100.00
3294;BME280;1659;51.470;6.770;2023-04-07T00:20:05;101174.44;;;7.79;100.00
3294;BME280;1659;51.470;6.770;2023-04-07T00:22:32;101177.97;;;7.80;100.00
3294;BME280;1659;51.470;6.770;2023-04-07T00:24:59;101184.97;;;7.79;100.00
3294;BME280;1659;51.470;6.770;2023-04-07T00:27:25;101183.22;;;7.80;100.00
3294;BME280;1659;51.470;6.770;2023-04-07T00:29:52;101185.88;;;7.80;100.00
3294;BME280;1659;51.470;6.770;2023-04-07T00:32:19;101182.34;;;7.81;100.00
3294;BME280;1659;51.470;6.770;2023-04-07T00:34:46;101183.22;;;7.81;100.00
3294;BME280;1659;51.470;6.770;2023-04-07T00:37:14;101178.84;;;7.82;100.00
3294;BME280;1659;51.470;6.770;2023-04-07T00:39:40;101183.22;;;7.81;100.00
3294;BME280;1659;51.470;6.770;2023-04-07T00:42:07;101179.69;;;7.81;100.00
3294;BME280;1659;51.470;6.770;2023-04-07T00:44:33;101181.47;;;7.82;100.00
3294;BME280;1659;51.470;6.770;2023-04-07T00:47:00;101174.44;;;7.82;100.00
3294;BME280;1659;51.470;6.770;2023-04-07T00:49:27;101182.34;;;7.84;100.00
3294;BME280;1659;51.470;6.770;2023-04-07T00:51:54;101173.56;;;7.83;100.00
3294;BME280;1659;51.470;6.770;2023-04-07T00:54:22;101178.84;;;7.85;100.00
3294;BME280;1659;51.470;6.770;2023-04-07T00:56:49;101175.31;;;7.87;100.00
3294;BME280;1659;51.470;6.770;2023-04-07T00:59:16;101173.56;;;7.91;100.00
3294;BME280;1659;51.470;6.770;2023-04-07T01:01:44;101167.44;;;7.93;100.00
3294;BME280;1659;51.470;6.770;2023-04-07T01:04:21;101165.66;;;7.96;100.00
3294;BME280;1659;51.470;6.770;2023-04-07T01:06:54;101166.53;;;7.99;100.00
3294;BME280;1659;51.470;6.770;2023-04-07T01:09:27;101170.91;;;8.03;100.00
3294;BME280;1659;51.470;6.770;2023-04-07T01:12:01;101170.03;;;8.06;100.00
3294;BME280;1659;51.470;6.770;2023-04-07T01:14:33;101167.38;;;8.09;100.00
3294;BME280;1659;51.470;6.770;2023-04-07T01:17:04;101168.28;;;8.12;100.00
3294;BME280;1659;51.470;6.770;2023-04-07T01:19:33;101163.88;;;8.16;100.00
3294;BME280;1659;51.470;6.770;2023-04-07T01:22:05;101167.38;;;8.21;100.00
3294;BME280;1659;51.470;6.770;2023-04-07T01:25:01;101165.63;;;8.25;100.00
3294;BME280;1659;51.470;6.770;2023-04-07T01:27:35;101159.44;;;8.29;100.00
3294;BME280;1659;51.470;6.770;2023-04-07T01:30:09;101169.06;;;8.33;100.00
3294;BME280;1659;51.470;6.770;2023-04-07T01:32:38;101165.56;;;8.36;100.00
3294;BME280;1659;51.470;6.770;2023-04-07T01:35:09;101164.69;;;8.38;100.00
3294;BME280;1659;51.470;6.770;2023-04-07T01:37:38;101165.53;;;8.40;100.00
3294;BME280;1659;51.470;6.770;2023-04-07T01:40:07;101168.22;;;8.43;100.00
3294;BME280;1659;51.470;6.770;2023-04-07T01:42:34;101165.56;;;8.45;100.00
3294;BME280;1659;51.470;6.770;2023-04-07T01:45:01;101165.56;;;8.46;100.00
3294;BME280;1659;51.470;6.770;2023-04-07T01:47:30;101166.44;;;8.48;100.00
3294;BME280;1659;51.470;6.770;2023-04-07T01:49:58;101169.06;;;8.50;100.00
3294;BME280;1659;51.470;6.770;2023-04-07T01:52:25;101160.28;;;8.51;100.00
3294;BME280;1659;51.470;6.770;2023-04-07T01:54:52;101171.69;;;8.53;100.00
3294;BME280;1659;51.470;6.770;2023-04-07T01:57:19;101165.53;;;8.56;100.00
3294;BME280;1659;51.470;6.770;2023-04-07T01:59:46;101168.16;;;8.57;100.00
3294;BME280;1659;51.470;6.770;2023-04-07T02:02:12;101169.03;;;8.59;100.00
3294;BME280;1659;51.470;6.770;2023-04-07T02:04:46;101165.50;;;8.62;100.00
3294;BME280;1659;51.470;6.770;2023-04-07T02:07:18;101167.25;;;8.63;100.00
3294;BME280;1659;51.470;6.770;2023-04-07T02:09:47;101161.09;;;8.62;100.00
3294;BME280;1659;51.470;6.770;2023-04-07T02:12:15;101162.88;;;8.63;100.00
3294;BME280;1659;51.470;6.770;2023-04-07T02:14:42;101167.25;;;8.64;100.00
3294;BME280;1659;51.470;6.770;2023-04-07T02:17:10;101160.25;;;8.63;100.00
3294;BME280;1659;51.470;6.770;2023-04-07T02:19:41;101157.59;;;8.63;100.00
3294;BME280;1659;51.470;6.770;2023-04-07T02:22:10;101166.38;;;8.64;100.00
3294;BME280;1659;51.470;6.770;2023-04-07T02:24:40;101164.59;;;8.63;100.00
3294;BME280;1659;51.470;6.770;2023-04-07T02:27:06;101160.25;;;8.63;100.00
3294;BME280;1659;51.470;6.770;2023-04-07T02:29:33;101162.88;;;8.62;100.00
3294;BME280;1659;51.470;6.770;2023-04-07T02:31:59;101169.88;;;8.61;100.00
3294;BME280;1659;51.470;6.770;2023-04-07T02:34:26;101166.38;;;8.61;100.00
3294;BME280;1659;51.470;6.770;2023-04-07T02:36:54;101169.91;;;8.60;100.00
3294;BME280;1659;51.470;6.770;2023-04-07T02:39:20;101170.78;;;8.59;100.00
3294;BME280;1659;51.470;6.770;2023-04-07T02:41:47;101174.28;;;8.58;100.00
3294;BME280;1659;51.470;6.770;2023-04-07T02:44:13;101173.41;;;8.57;100.00
3294;BME280;1659;51.470;6.770;2023-04-07T02:46:40;101176.91;;;8.58;100.00
3294;BME280;1659;51.470;6.770;2023-04-07T02:49:07;101172.56;;;8.57;100.00
3294;BME280;1659;51.470;6.770;2023-04-07T02:51:33;101186.59;;;8.57;100.00
3294;BME280;1659;51.470;6.770;2023-04-07T02:54:01;101180.47;;;8.57;100.00
3294;BME280;1659;51.470;6.770;2023-04-07T02:56:27;101183.09;;;8.57;100.00
3294;BME280;1659;51.470;6.770;2023-04-07T02:58:55;101178.69;;;8.54;100.00
3294;BME280;1659;51.470;6.770;2023-04-07T03:01:21;101178.69;;;8.54;100.00
3294;BME280;1659;51.470;6.770;2023-04-07T03:03:48;101181.34;;;8.53;100.00
3294;BME280;1659;51.470;6.770;2023-04-07T03:06:14;101183.97;;;8.53;100.00
3294;BME280;1659;51.470;6.770;2023-04-07T03:08:41;101182.22;;;8.52;100.00
3294;BME280;1659;51.470;6.770;2023-04-07T03:11:09;101179.59;;;8.52;100.00
3294;BME280;1659;51.470;6.770;2023-04-07T03:13:36;101186.63;;;8.51;100.00
3294;BME280;1659;51.470;6.770;2023-04-07T03:16:02;101181.38;;;8.51;100.00
3294;BME280;1659;51.470;6.770;2023-04-07T03:18:29;101185.72;;;8.50;100.00
3294;BME280;1659;51.470;6.770;2023-04-07T03:20:55;101191.91;;;8.51;100.00
3294;BME280;1659;51.470;6.770;2023-04-07T03:23:22;101183.09;;;8.50;100.00
3294;BME280;1659;51.470;6.770;2023-04-07T03:25:49;101187.50;;;8.52;100.00
3294;BME280;1659;51.470;6.770;2023-04-07T03:28:17;101186.63;;;8.51;100.00
3294;BME280;1659;51.470;6.770;2023-04-07T03:30:43;101187.50;;;8.52;100.00
3294;BME280;1659;51.470;6.770;2023-04-07T03:33:10;101184.88;;;8.52;100.00
3294;BME280;1659;51.470;6.770;2023-04-07T03:35:36;101187.50;;;8.50;100.00
3294;BME280;1659;51.470;6.770;2023-04-07T03:38:03;101192.78;;;8.52;100.00
3294;BME280;1659;51.470;6.770;2023-04-07T03:40:29;101184.00;;;8.49;100.00
3294;BME280;1659;51.470;6.770;2023-04-07T03:42:57;101181.38;;;8.48;100.00
3294;BME280;1659;51.470;6.770;2023-04-07T03:45:25;101184.88;;;8.48;100.00
3294;BME280;1659;51.470;6.770;2023-04-07T03:47:52;101194.53;;;8.48;100.00
3294;BME280;1659;51.470;6.770;2023-04-07T03:50:18;101190.13;;;8.47;100.00
3294;BME280;1659;51.470;6.770;2023-04-07T03:52:45;101197.16;;;8.46;100.00
3294;BME280;1659;51.470;6.770;2023-04-07T03:55:12;101190.13;;;8.45;100.00
3294;BME280;1659;51.470;6.770;2023-04-07T03:57:38;101193.66;;;8.46;100.00
3294;BME280;1659;51.470;6.770;2023-04-07T04:00:06;101195.41;;;8.45;100.00
3294;BME280;1659;51.470;6.770;2023-04-07T04:02:34;101196.31;;;8.44;100.00
3294;BME280;1659;51.470;6.770;2023-04-07T04:05:01;101200.69;;;8.44;100.00
3294;BME280;1659;51.470;6.770;2023-04-07T04:07:27;101196.31;;;8.44;100.00
3294;BME280;1659;51.470;6.770;2023-04-07T04:09:54;101203.31;;;8.44;100.00
3294;BME280;1659;51.470;6.770;2023-04-07T04:12:20;101197.19;;;8.45;100.00
3294;BME280;1659;51.470;6.770;2023-04-07T04:14:47;101208.56;;;8.44;100.00
3294;BME280;1659;51.470;6.770;2023-04-07T04:17:14;101202.44;;;8.43;100.00
3294;BME280;1659;51.470;6.770;2023-04-07T04:19:41;101212.97;;;8.43;100.00
3294;BME280;1659;51.470;6.770;2023-04-07T04:22:08;101207.69;;;8.42;100.00
3294;BME280;1659;51.470;6.770;2023-04-07T04:24:35;101224.38;;;8.44;100.00
3294;BME280;1659;51.470;6.770;2023-04-07T04:27:01;101214.75;;;8.43;100.00
3294;BME280;1659;51.470;6.770;2023-04-07T04:29:28;101220.88;;;8.43;100.00
3294;BME280;1659;51.470;6.770;2023-04-07T04:31:54;101227.03;;;8.42;100.00
3294;BME280;1659;51.470;6.770;2023-04-07T04:34:21;101224.41;;;8.42;100.00
3294;BME280;1659;51.470;6.770;2023-04-07T04:36:48;101228.75;;;8.42;100.00
3294;BME280;1659;51.470;6.770;2023-04-07T04:39:15;101227.88;;;8.41;100.00
3294;BME280;1659;51.470;6.770;2023-04-07T04:41:42;101227.00;;;8.41;100.00
3294;BME280;1659;51.470;6.770;2023-04-07T04:44:08;101232.28;;;8.39;100.00
3294;BME280;1659;51.470;6.770;2023-04-07T04:46:35;101230.50;;;8.40;100.00
3294;BME280;1659;51.470;6.770;2023-04-07T04:49:01;101238.41;;;8.40;100.00
3294;BME280;1659;51.470;6.770;2023-04-07T04:51:28;101235.78;;;8.40;100.00
3294;BME280;1659;51.470;6.770;2023-04-07T04:53:56;101230.50;;;8.38;100.00
3294;BME280;1659;51.470;6.770;2023-04-07T04:56:23;101243.69;;;8.38;100.00
3294;BME280;1659;51.470;6.770;2023-04-07T04:58:49;101239.31;;;8.37;100.00
3294;BME280;1659;51.470;6.770;2023-04-07T05:01:16;101244.56;;;8.36;100.00
3294;BME280;1659;51.470;6.770;2023-04-07T05:03:43;101248.97;;;8.34;100.00
3294;BME280;1659;51.470;6.770;2023-04-07T05:06:09;101250.72;;;8.33;100.00
3294;BME280;1659;51.470;6.770;2023-04-07T05:08:36;101250.75;;;8.30;100.00
3294;BME280;1659;51.470;6.770;2023-04-07T05:11:04;101251.59;;;8.27;100.00
3294;BME280;1659;51.470;6.770;2023-04-07T05:13:30;101246.34;;;8.26;100.00
3294;BME280;1659;51.470;6.770;2023-04-07T05:15:57;101255.13;;;8.23;100.00
3294;BME280;1659;51.470;6.770;2023-04-07T05:18:23;101254.22;;;8.23;100.00
3294;BME280;1659;51.470;6.770;2023-04-07T05:20:50;101256.88;;;8.21;100.00
3294;BME280;1659;51.470;6.770;2023-04-07T05:23:16;101263.03;;;8.20;100.00
3294;BME280;1659;51.470;6.770;2023-04-07T05:25:43;101260.38;;;8.20;100.00
3294;BME280;1659;51.470;6.770;2023-04-07T05:28:11;101260.38;;;8.20;100.00
3294;BME280;1659;51.470;6.770;2023-04-07T05:30:37;101263.03;;;8.22;100.00
3294;BME280;1659;51.470;6.770;2023-04-07T05:33:04;101264.75;;;8.23;100.00
3294;BME280;1659;51.470;6.770;2023-04-07T05:35:31;101262.13;;;8.23;100.00
3294;BME280;1659;51.470;6.770;2023-04-07T05:37:57;101268.28;;;8.25;100.00
3294;BME280;1659;51.470;6.770;2023-04-07T05:40:24;101270.03;;;8.26;100.00
3294;BME280;1659;51.470;6.770;2023-04-07T05:42:50;101270.91;;;8.26;100.00
3294;BME280;1659;51.470;6.770;2023-04-07T05:45:18;101274.44;;;8.27;100.00
3294;BME280;1659;51.470;6.770;2023-04-07T05:47:45;101282.34;;;8.30;100.00
3294;BME280;1659;51.470;6.770;2023-04-07T05:50:14;101273.53;;;8.31;100.00
3294;BME280;1659;51.470;6.770;2023-04-07T05:52:41;101279.66;;;8.31;100.00
3294;BME280;1659;51.470;6.770;2023-04-07T05:55:08;101279.69;;;8.33;100.00
3294;BME280;1659;51.470;6.770;2023-04-07T05:57:35;101280.56;;;8.34;100.00
3294;BME280;1659;51.470;6.770;2023-04-07T06:00:02;101284.94;;;8.33;100.00
3294;BME280;1659;51.470;6.770;2023-04-07T06:02:30;101288.47;;;8.32;100.00
3294;BME280;1659;51.470;6.770;2023-04-07T06:04:56;101287.59;;;8.30;100.00
3294;BME280;1659;51.470;6.770;2023-04-07T06:07:23;101293.72;;;8.29;100.00
3294;BME280;1659;51.470;6.770;2023-04-07T06:09:50;101293.72;;;8.27;100.00
3294;BME280;1659;51.470;6.770;2023-04-07T06:12:16;101297.22;;;8.26;100.00
3294;BME280;1659;51.470;6.770;2023-04-07T06:14:46;101300.75;;;8.27;100.00
3294;BME280;1659;51.470;6.770;2023-04-07T06:17:16;101309.53;;;8.27;100.00
3294;BME280;1659;51.470;6.770;2023-04-07T06:19:44;101306.03;;;8.27;100.00
3294;BME280;1659;51.470;6.770;2023-04-07T06:22:10;101307.75;;;8.28;100.00
3294;BME280;1659;51.470;6.770;2023-04-07T06:24:37;101308.66;;;8.30;100.00
3294;BME280;1659;51.470;6.770;2023-04-07T06:27:04;101313.03;;;8.31;100.00
3294;BME280;1659;51.470;6.770;2023-04-07T06:29:32;101309.53;;;8.32;100.00
3294;BME280;1659;51.470;6.770;2023-04-07T06:31:58;101309.53;;;8.34;100.00
3294;BME280;1659;51.470;6.770;2023-04-07T06:34:25;101315.69;;;8.34;100.00
3294;BME280;1659;51.470;6.770;2023-04-07T06:36:53;101314.78;;;8.35;100.00
3294;BME280;1659;51.470;6.770;2023-04-07T06:39:20;101313.91;;;8.36;100.00
3294;BME280;1659;51.470;6.770;2023-04-07T06:41:46;101322.69;;;8.38;100.00
3294;BME280;1659;51.470;6.770;2023-04-07T06:44:13;101321.81;;;8.41;100.00
3294;BME280;1659;51.470;6.770;2023-04-07T06:46:39;101322.69;;;8.41;100.00
3294;BME280;1659;51.470;6.770;2023-04-07T06:49:06;101321.81;;;8.44;100.00
3294;BME280;1659;51.470;6.770;2023-04-07T06:51:33;101325.38;;;8.46;100.00
3294;BME280;1659;51.470;6.770;2023-04-07T06:54:01;101322.69;;;8.50;100.00
3294;BME280;1659;51.470;6.770;2023-04-07T06:56:28;101326.22;;;8.54;100.00
3294;BME280;1659;51.470;6.770;2023-04-07T06:58:55;101328.84;;;8.57;100.00
3294;BME280;1659;51.470;6.770;2023-04-07T07:01:21;101334.13;;;8.59;100.00
3294;BME280;1659;51.470;6.770;2023-04-07T07:03:48;101336.75;;;8.59;100.00
3294;BME280;1659;51.470;6.770;2023-04-07T07:06:15;101334.97;;;8.61;100.00
3294;BME280;1659;51.470;6.770;2023-04-07T07:08:41;101336.75;;;8.63;100.00
3294;BME280;1659;51.470;6.770;2023-04-07T07:11:09;101342.00;;;8.66;100.00
3294;BME280;1659;51.470;6.770;2023-04-07T07:13:36;101344.63;;;8.68;100.00
3294;BME280;1659;51.470;6.770;2023-04-07T07:16:03;101342.91;;;8.68;100.00
3294;BME280;1659;51.470;6.770;2023-04-07T07:18:29;101345.50;;;8.70;100.00
3294;BME280;1659;51.470;6.770;2023-04-07T07:20:56;101342.00;;;8.71;100.00
3294;BME280;1659;51.470;6.770;2023-04-07T07:23:22;101345.50;;;8.73;100.00
3294;BME280;1659;51.470;6.770;2023-04-07T07:25:49;101346.41;;;8.74;100.00
3294;BME280;1659;51.470;6.770;2023-04-07T07:28:17;101352.53;;;8.76;100.00
3294;BME280;1659;51.470;6.770;2023-04-07T07:30:44;101346.41;;;8.74;100.00
3294;BME280;1659;51.470;6.770;2023-04-07T07:33:10;101348.13;;;8.75;100.00
3294;BME280;1659;51.470;6.770;2023-04-07T07:35:37;101351.63;;;8.75;100.00
3294;BME280;1659;51.470;6.770;2023-04-07T07:38:04;101352.53;;;8.74;100.00
3294;BME280;1659;51.470;6.770;2023-04-07T07:40:31;101354.28;;;8.75;100.00
3294;BME280;1659;51.470;6.770;2023-04-07T07:42:58;101361.31;;;8.76;100.00
3294;BME280;1659;51.470;6.770;2023-04-07T07:45:26;101358.69;;;8.76;100.00
3294;BME280;1659;51.470;6.770;2023-04-07T07:47:53;101358.69;;;8.78;100.00
3294;BME280;1659;51.470;6.770;2023-04-07T07:50:19;101369.22;;;8.79;100.00
3294;BME280;1659;51.470;6.770;2023-04-07T07:52:46;101370.09;;;8.81;100.00
3294;BME280;1659;51.470;6.770;2023-04-07T07:55:13;101383.28;;;8.81;100.00
3294;BME280;1659;51.470;6.770;2023-04-07T07:57:39;101380.63;;;8.81;100.00
3294;BME280;1659;51.470;6.770;2023-04-07T08:00:07;101378.00;;;8.81;100.00
3294;BME280;1659;51.470;6.770;2023-04-07T08:02:35;101383.28;;;8.81;100.00
3294;BME280;1659;51.470;6.770;2023-04-07T08:05:03;101383.28;;;8.81;100.00
3294;BME280;1659;51.470;6.770;2023-04-07T08:07:30;101374.50;;;8.79;100.00
3294;BME280;1659;51.470;6.770;2023-04-07T08:09:56;101383.25;;;8.78;100.00
3294;BME280;1659;51.470;6.770;2023-04-07T08:12:23;101388.53;;;8.78;100.00
3294;BME280;1659;51.470;6.770;2023-04-07T08:14:49;101386.78;;;8.76;100.00
3294;BME280;1659;51.470;6.770;2023-04-07T08:17:16;101398.22;;;8.76;100.00
3294;BME280;1659;51.470;6.770;2023-04-07T08:19:44;101399.97;;;8.76;100.00
3294;BME280;1659;51.470;6.770;2023-04-07T08:22:10;101393.81;;;8.77;100.00
3294;BME280;1659;51.470;6.770;2023-04-07T08:24:37;101395.56;;;8.76;100.00
3294;BME280;1659;51.470;6.770;2023-04-07T08:27:03;101396.44;;;8.78;100.00
3294;BME280;1659;51.470;6.770;2023-04-07T08:29:30;101402.56;;;8.79;100.00
3294;BME280;1659;51.470;6.770;2023-04-07T08:31:56;101404.34;;;8.78;100.00
3294;BME280;1659;51.470;6.770;2023-04-07T08:34:23;101403.47;;;8.79;100.00
3294;BME280;1659;51.470;6.770;2023-04-07T08:36:51;101410.50;;;8.80;100.00
3294;BME280;1659;51.470;6.770;2023-04-07T08:39:17;101416.63;;;8.82;100.00
3294;BME280;1659;51.470;6.770;2023-04-07T08:41:46;101418.41;;;8.83;100.00
3294;BME280;1659;51.470;6.770;2023-04-07T08:44:13;101420.16;;;8.84;100.00
3294;BME280;1659;51.470;6.770;2023-04-07T08:46:40;101427.19;;;8.92;100.00
3294;BME280;1659;51.470;6.770;2023-04-07T08:49:10;101425.41;;;8.95;100.00
3294;BME280;1659;51.470;6.770;2023-04-07T08:51:43;101419.28;;;8.95;100.00
3294;BME280;1659;51.470;6.770;2023-04-07T08:54:13;101425.41;;;8.94;100.00
3294;BME280;1659;51.470;6.770;2023-04-07T08:56:41;101422.78;;;8.92;100.00
3294;BME280;1659;51.470;6.770;2023-04-07T08:59:09;101430.69;;;8.91;100.00
3294;BME280;1659;51.470;6.770;2023-04-07T09:01:36;101428.06;;;8.89;100.00
3294;BME280;1659;51.470;6.770;2023-04-07T09:04:03;101432.44;;;8.88;100.00
3294;BME280;1659;51.470;6.770;2023-04-07T09:06:31;101433.31;;;8.87;100.00
3294;BME280;1659;51.470;6.770;2023-04-07T09:08:58;101433.31;;;8.87;100.00
3294;BME280;1659;51.470;6.770;2023-04-07T09:11:27;101433.31;;;8.87;100.00
3294;BME280;1659;51.470;6.770;2023-04-07T09:13:55;101438.59;;;8.89;100.00
3294;BME280;1659;51.470;6.770;2023-04-07T09:16:23;101442.13;;;8.90;100.00
3294;BME280;1659;51.470;6.770;2023-04-07T09:18:51;101439.47;;;8.91;100.00
3294;BME280;1659;51.470;6.770;2023-04-07T09:21:18;101456.19;;;8.95;100.00
3294;BME280;1659;51.470;6.770;2023-04-07T09:23:46;101442.09;;;8.97;100.00
3294;BME280;1659;51.470;6.770;2023-04-07T09:26:21;101451.75;;;9.01;100.00
3294;BME280;1659;51.470;6.770;2023-04-07T09:28:52;101448.25;;;9.04;100.00
3294;BME280;1659;51.470;6.770;2023-04-07T09:31:19;101450.88;;;9.05;100.00
3294;BME280;1659;51.470;6.770;2023-04-07T09:33:47;101445.59;;;9.15;100.00
3294;BME280;1659;51.470;6.770;2023-04-07T09:36:13;101454.34;;;9.27;100.00
3294;BME280;1659;51.470;6.770;2023-04-07T09:38:41;101454.34;;;9.35;100.00
3294;BME280;1659;51.470;6.770;2023-04-07T09:41:10;101450.81;;;9.38;100.00
3294;BME280;1659;51.470;6.770;2023-04-07T09:43:37;101447.31;;;9.39;100.00
3294;BME280;1659;51.470;6.770;2023-04-07T09:46:11;101455.19;;;9.48;100.00
3294;BME280;1659;51.470;6.770;2023-04-07T09:48:38;101451.66;;;9.46;100.00
3294;BME280;1659;51.470;6.770;2023-04-07T09:51:06;101455.19;;;9.47;100.00
3294;BME280;1659;51.470;6.770;2023-04-07T09:53:44;101455.19;;;9.50;100.00
3294;BME280;1659;51.470;6.770;2023-04-07T09:56:12;101459.53;;;9.55;100.00
3294;BME280;1659;51.470;6.770;2023-04-07T09:58:40;101455.13;;;9.59;100.00
3294;BME280;1659;51.470;6.770;2023-04-07T10:01:10;101458.63;;;9.61;100.00
3294;BME280;1659;51.470;6.770;2023-04-07T10:03:37;101456.91;;;9.60;100.00
3294;BME280;1659;51.470;6.770;2023-04-07T10:06:04;101455.13;;;9.57;100.00
3294;BME280;1659;51.470;6.770;2023-04-07T10:08:33;101462.19;;;9.54;100.00
3294;BME280;1659;51.470;6.770;2023-04-07T10:11:00;101464.81;;;9.52;100.00
3294;BME280;1659;51.470;6.770;2023-04-07T10:13:28;101464.81;;;9.55;100.00
3294;BME280;1659;51.470;6.770;2023-04-07T10:15:56;101455.16;;;9.56;100.00
3294;BME280;1659;51.470;6.770;2023-04-07T10:18:28;101459.53;;;9.57;100.00
3294;BME280;1659;51.470;6.770;2023-04-07T10:20:56;101466.59;;;9.59;100.00
3294;BME280;1659;51.470;6.770;2023-04-07T10:23:27;101476.25;;;9.60;100.00
3294;BME280;1659;51.470;6.770;2023-04-07T10:25:55;101475.38;;;9.61;100.00
3294;BME280;1659;51.470;6.770;2023-04-07T10:28:26;101474.50;;;9.56;100.00
3294;BME280;1659;51.470;6.770;2023-04-07T10:30:53;101476.28;;;9.56;100.00
3294;BME280;1659;51.470;6.770;2023-04-07T10:33:49;101478.03;;;9.54;100.00
3294;BME280;1659;51.470;6.770;2023-04-07T10:36:16;101480.66;;;9.55;100.00
3294;BME280;1659;51.470;6.770;2023-04-07T10:39:18;101477.16;;;9.56;100.00
3294;BME280;1659;51.470;6.770;2023-04-07T10:41:45;101480.66;;;9.60;100.00
3294;BME280;1659;51.470;6.770;2023-04-07T10:44:46;101485.94;;;9.60;100.00
3294;BME280;1659;51.470;6.770;2023-04-07T10:47:14;101492.94;;;9.62;100.00
3294;BME280;1659;51.470;6.770;2023-04-07T10:50:17;101488.53;;;9.66;100.00
3294;BME280;1659;51.470;6.770;2023-04-07T10:52:44;101498.22;;;9.70;100.00
3294;BME280;1659;51.470;6.770;2023-04-07T10:55:28;101490.28;;;9.72;100.00
3294;BME280;1659;51.470;6.770;2023-04-07T10:58:18;101492.03;;;9.76;100.00
3294;BME280;1659;51.470;6.770;2023-04-07T11:01:16;101492.88;;;9.82;100.00
3294;BME280;1659;51.470;6.770;2023-04-07T11:03:53;101492.84;;;9.92;100.00
3294;BME280;1659;51.470;6.770;2023-04-07T11:06:22;101496.34;;;9.98;100.00
3294;BME280;1659;51.470;6.770;2023-04-07T11:08:50;101494.56;;;10.00;100.00
3294;BME280;1659;51.470;6.770;2023-04-07T11:11:33;101497.19;;;10.04;100.00
3294;BME280;1659;51.470;6.770;2023-04-07T11:14:00;101497.19;;;10.07;100.00
3294;BME280;1659;51.470;6.770;2023-04-07T11:16:40;101496.28;;;10.11;100.00
3294;BME280;1659;51.470;6.770;2023-04-07T11:19:07;101494.47;;;10.19;100.00
3294;BME280;1659;51.470;6.770;2023-04-07T11:21:35;101499.69;;;10.28;100.00
3294;BME280;1659;51.470;6.770;2023-04-07T11:24:02;101501.44;;;10.37;100.00
3294;BME280;1659;51.470;6.770;2023-04-07T11:26:35;101504.06;;;10.42;100.00
3294;BME280;1659;51.470;6.770;2023-04-07T11:29:03;101497.03;;;10.41;100.00
3294;BME280;1659;51.470;6.770;2023-04-07T11:31:30;101503.19;;;10.39;100.00
3294;BME280;1659;51.470;6.770;2023-04-07T11:33:58;101506.75;;;10.35;100.00
3294;BME280;1659;51.470;6.770;2023-04-07T11:36:27;101505.88;;;10.32;100.00
3294;BME280;1659;51.470;6.770;2023-04-07T11:38:56;101507.66;;;10.33;100.00
3294;BME280;1659;51.470;6.770;2023-04-07T11:41:24;101508.47;;;10.39;100.00
3294;BME280;1659;51.470;6.770;2023-04-07T11:44:03;101512.00;;;10.43;100.00
3294;BME280;1659;51.470;6.770;2023-04-07T11:46:30;101509.38;;;10.40;100.00
3294;BME280;1659;51.470;6.770;2023-04-07T11:49:07;101519.03;;;10.41;100.00
3294;BME280;1659;51.470;6.770;2023-04-07T11:51:34;101523.44;;;10.41;100.00
3294;BME280;1659;51.470;6.770;2023-04-07T11:54:02;101518.16;;;10.41;100.00
3294;BME280;1659;51.470;6.770;2023-04-07T11:56:29;101528.72;;;10.41;100.00
3294;BME280;1659;51.470;6.770;2023-04-07T11:58:55;101523.44;;;10.45;100.00
3294;BME280;1659;51.470;6.770;2023-04-07T12:01:37;101531.34;;;10.47;100.00
3294;BME280;1659;51.470;6.770;2023-04-07T12:04:04;101534.84;;;10.47;100.00
3294;BME280;1659;51.470;6.770;2023-04-07T12:06:33;101534.84;;;10.47;100.00
3294;BME280;1659;51.470;6.770;2023-04-07T12:09:04;101540.16;;;10.43;100.00
3294;BME280;1659;51.470;6.770;2023-04-07T12:11:31;101544.50;;;10.57;100.00
3294;BME280;1659;51.470;6.770;2023-04-07T12:13:58;101542.69;;;10.64;100.00
3294;BME280;1659;51.470;6.770;2023-04-07T12:16:25;101545.28;;;10.66;100.00
3294;BME280;1659;51.470;6.770;2023-04-07T12:18:51;101545.34;;;10.64;100.00
3294;BME280;1659;51.470;6.770;2023-04-07T12:21:18;101548.88;;;10.57;100.00
3294;BME280;1659;51.470;6.770;2023-04-07T12:23:45;101551.59;;;10.46;100.00
3294;BME280;1659;51.470;6.770;2023-04-07T12:26:14;101557.78;;;10.39;100.00
3294;BME280;1659;51.470;6.770;2023-04-07T12:28:40;101559.59;;;10.34;100.00
3294;BME280;1659;51.470;6.770;2023-04-07T12:31:07;101556.94;;;10.34;100.00
3294;BME280;1659;51.470;6.770;2023-04-07T12:33:34;101563.13;;;10.34;100.00
3294;BME280;1659;51.470;6.770;2023-04-07T12:36:01;101556.94;;;10.34;100.00
3294;BME280;1659;51.470;6.770;2023-04-07T12:38:28;101565.78;;;10.31;100.00
3294;BME280;1659;51.470;6.770;2023-04-07T12:40:54;101564.88;;;10.28;100.00
3294;BME280;1659;51.470;6.770;2023-04-07T12:43:29;101564.03;;;10.23;100.00
3294;BME280;1659;51.470;6.770;2023-04-07T12:45:55;101568.44;;;10.16;100.00
3294;BME280;1659;51.470;6.770;2023-04-07T12:48:22;101564.94;;;10.11;100.00
3294;BME280;1659;51.470;6.770;2023-04-07T12:50:50;101568.47;;;10.10;100.00
3294;BME280;1659;51.470;6.770;2023-04-07T12:53:17;101571.09;;;10.10;100.00
3294;BME280;1659;51.470;6.770;2023-04-07T12:55:44;101574.63;;;10.10;100.00
3294;BME280;1659;51.470;6.770;2023-04-07T12:58:10;101576.41;;;10.08;100.00
3294;BME280;1659;51.470;6.770;2023-04-07T13:00:39;101576.41;;;10.08;100.00
3294;BME280;1659;51.470;6.770;2023-04-07T13:03:05;101579.94;;;10.07;100.00
3294;BME280;1659;51.470;6.770;2023-04-07T13:05:32;101576.38;;;10.10;100.00
3294;BME280;1659;51.470;6.770;2023-04-07T13:08:00;101575.50;;;10.11;100.00
3294;BME280;1659;51.470;6.770;2023-04-07T13:10:27;101576.38;;;10.10;100.00
3294;BME280;1659;51.470;6.770;2023-04-07T13:12:54;101578.16;;;10.09;100.00
3294;BME280;1659;51.470;6.770;2023-04-07T13:15:20;101572.88;;;10.11;100.00